Time;durP1;ratioP1;P1;durP2;ratioP2;P2;SDS_P1;SDS_P2;PMS_P1;PMS_P2;Temp;Humidity;BMP_temperature;BMP_pressure;BME280_temperature;BME280_humidity;BME280_pressure;Samples;Min_cycle;Max_cycle;Signal;HPM_P1;HPM_P2
2023/11/05 00:02:09;;;;;;;9.65;0.98;;;9.00;99.90;;;;;;4974914;28;20035;-75
2023/11/05 00:04:34;;;;;;;15.02;0.47;;;9.20;99.90;;;;;;4975575;28;20057;-74
2023/11/05 00:07:00;;;;;;;11.63;0.77;;;9.10;99.90;;;;;;4957656;28;20478;-75
2023/11/05 00:09:26;;;;;;;6.43;0.25;;;9.10;99.90;;;;;;4975090;28;20027;-75
2023/11/05 00:11:52;;;;;;;4.30;0.25;;;9.10;99.90;;;;;;4974939;28;20027;-74
2023/11/05 00:14:17;;;;;;;6.10;0.50;;;9.10;99.90;;;;;;4957478;28;20038;-74
2023/11/05 00:16:43;;;;;;;13.40;0.77;;;9.10;99.90;;;;;;4975323;28;20031;-74
2023/11/05 00:19:08;;;;;;;4.13;0.10;;;9.10;99.90;;;;;;4979006;28;20102;-74
2023/11/05 00:21:34;;;;;;;8.50;0.65;;;9.10;99.90;;;;;;4979005;28;20446;-75
2023/11/05 00:24:00;;;;;;;8.10;0.30;;;9.10;99.90;;;;;;4978839;28;20418;-75
2023/11/05 00:26:26;;;;;;;3.92;0.20;;;;;;;;;;4978605;28;20026;-74
2023/11/05 00:28:52;;;;;;;13.23;1.25;;;9.10;99.90;;;;;;4978749;28;20034;-75
2023/11/05 00:31:17;;;;;;;5.43;0.20;;;9.10;99.90;;;;;;4961352;28;20483;-75
2023/11/05 00:33:43;;;;;;;6.47;0.73;;;;;;;;;;4978498;28;20039;-77
2023/11/05 00:36:09;;;;;;;9.65;0.60;;;9.00;99.90;;;;;;4978424;28;20521;-77
2023/11/05 00:38:35;;;;;;;4.53;0.28;;;9.00;99.90;;;;;;4977385;28;20059;-77
2023/11/05 00:41:00;;;;;;;5.85;0.90;;;9.00;99.90;;;;;;4978559;28;20035;-77
2023/11/05 00:43:27;;;;;;;6.10;0.22;;;9.00;99.90;;;;;;4978547;28;20027;-78
2023/11/05 00:45:53;;;;;;;9.70;0.50;;;8.90;99.90;;;;;;4978227;28;20398;-77
2023/11/05 00:48:19;;;;;;;15.77;1.50;;;8.90;99.90;;;;;;4961306;28;20038;-77
2023/11/05 00:50:44;;;;;;;10.73;0.20;;;8.90;99.90;;;;;;4961025;28;20114;-77
2023/11/05 00:53:10;;;;;;;5.90;0.90;;;8.90;99.90;;;;;;4961948;28;20027;-77
2023/11/05 00:55:35;;;;;;;9.77;0.43;;;8.90;99.90;;;;;;4978295;28;20379;-77
2023/11/05 00:58:01;;;;;;;9.10;0.10;;;8.90;99.90;;;;;;4978399;28;20035;-77
2023/11/05 01:00:26;;;;;;;5.25;0.13;;;8.90;99.90;;;;;;4978291;28;20026;-77
2023/11/05 01:02:52;;;;;;;7.95;0.68;;;8.90;99.90;;;;;;4978279;28;20027;-77
2023/11/05 01:05:18;;;;;;;7.80;0.10;;;8.90;99.90;;;;;;4978521;28;20031;-77
2023/11/05 01:07:43;;;;;;;8.88;0.47;;;8.90;99.90;;;;;;4977950;28;20030;-77
2023/11/05 01:10:09;;;;;;;9.30;1.15;;;10.10;99.90;;;;;;4977970;28;20042;-78
2023/11/05 01:12:34;;;;;;;6.75;0.20;;;9.00;99.90;;;;;;4978107;28;20042;-78
2023/11/05 01:15:02;;;;;;;8.82;0.20;;;9.00;99.90;;;;;;4960482;28;20058;-77
2023/11/05 01:17:28;;;;;;;13.35;0.50;;;8.90;99.90;;;;;;4960492;28;20371;-77
2023/11/05 01:19:53;;;;;;;11.95;0.98;;;9.00;99.90;;;;;;4977743;28;20034;-77
2023/11/05 01:22:19;;;;;;;5.38;0.28;;;9.00;99.90;;;;;;4960411;28;20057;-77
2023/11/05 01:24:44;;;;;;;11.07;0.75;;;9.00;99.90;;;;;;4960744;28;20033;-77
2023/11/05 01:27:10;;;;;;;8.35;0.55;;;9.10;99.90;;;;;;4960291;28;20045;-77
2023/11/05 01:29:36;;;;;;;6.57;0.40;;;9.00;99.90;;;;;;4976914;28;20023;-78
2023/11/05 01:32:01;;;;;;;11.05;0.38;;;9.10;99.90;;;;;;4977541;28;20106;-78
2023/11/05 01:34:27;;;;;;;6.63;0.45;;;9.10;99.90;;;;;;4977985;28;20376;-77
2023/11/05 01:36:52;;;;;;;6.05;0.47;;;9.10;99.90;;;;;;4977331;28;20059;-77
2023/11/05 01:39:19;;;;;;;12.38;0.63;;;9.20;99.90;;;;;;4977461;28;20467;-78
2023/11/05 01:41:44;;;;;;;4.00;0.10;;;9.20;99.90;;;;;;4960086;28;20030;-77
2023/11/05 01:44:10;;;;;;;9.27;0.10;;;9.20;99.90;;;;;;4977269;28;20023;-78
2023/11/05 01:46:36;;;;;;;12.82;0.20;;;9.30;99.90;;;;;;4977118;28;20050;-78
2023/11/05 01:49:04;;;;;;;11.13;0.38;;;9.30;99.90;;;;;;4959947;28;20023;-78
2023/11/05 01:51:30;;;;;;;6.47;0.93;;;9.30;99.90;;;;;;4977260;28;20040;-78
2023/11/05 01:53:56;;;;;;;1.27;0.20;;;9.30;99.90;;;;;;4977003;28;20102;-77
2023/11/05 01:56:25;;;;;;;3.05;0.30;;;9.40;99.90;;;;;;4977208;28;20027;-77
2023/11/05 01:58:52;;;;;;;9.50;0.20;;;9.30;99.90;;;;;;4977080;28;20027;-77
2023/11/05 02:01:18;;;;;;;4.50;0.32;;;9.40;99.90;;;;;;4959749;28;20026;-77
2023/11/05 02:03:44;;;;;;;3.95;0.28;;;9.40;99.90;;;;;;4976885;28;20031;-77
2023/11/05 02:06:12;;;;;;;7.65;0.00;;;9.40;99.90;;;;;;4960087;28;20023;-77
2023/11/05 02:08:39;;;;;;;8.38;0.25;;;9.40;99.90;;;;;;4959633;28;20062;-77
2023/11/05 02:11:06;;;;;;;3.40;0.50;;;9.40;99.90;;;;;;4959601;28;20501;-78
2023/11/05 02:13:46;;;;;;;9.82;1.23;;;9.40;99.90;;;;;;4959306;28;20046;-78
2023/11/05 02:16:13;;;;;;;9.52;0.85;;;9.40;99.90;;;;;;4976740;28;20478;-77
2023/11/05 02:18:40;;;;;;;7.03;0.35;;;9.40;99.90;;;;;;4975460;28;20033;-77
2023/11/05 02:21:07;;;;;;;5.45;0.32;;;9.40;99.90;;;;;;4976741;28;20142;-78
2023/11/05 02:23:33;;;;;;;7.28;0.00;;;9.40;99.90;;;;;;4959144;28;20029;-77
2023/11/05 02:25:59;;;;;;;5.95;0.30;;;9.40;99.90;;;;;;4975526;28;20101;-77
2023/11/05 02:28:25;;;;;;;4.15;0.10;;;9.40;99.90;;;;;;4976629;28;20071;-77
2023/11/05 02:30:50;;;;;;;5.45;0.30;;;9.40;99.90;;;;;;4959187;28;20082;-77
2023/11/05 02:33:16;;;;;;;10.68;0.47;;;9.40;99.90;;;;;;4976623;28;20039;-77
2023/11/05 02:35:42;;;;;;;17.63;1.38;;;9.40;99.90;;;;;;4976915;28;20547;-77
2023/11/05 02:38:08;;;;;;;6.28;0.10;;;9.40;99.90;;;;;;4976352;28;20031;-77
2023/11/05 02:40:33;;;;;;;7.75;0.68;;;9.40;99.90;;;;;;4959033;28;20030;-78
2023/11/05 02:42:59;;;;;;;10.82;0.88;;;9.40;99.90;;;;;;4976234;28;20106;-77
2023/11/05 02:45:25;;;;;;;7.68;0.35;;;;;;;;;;4959182;28;20027;-77
2023/11/05 02:47:50;;;;;;;14.30;0.85;;;9.40;99.90;;;;;;4958921;28;20113;-77
2023/11/05 02:50:16;;;;;;;5.80;0.38;;;9.40;99.90;;;;;;4976071;28;20538;-77
2023/11/05 02:52:42;;;;;;;6.05;0.68;;;9.30;99.90;;;;;;4974707;28;20027;-77
2023/11/05 02:55:08;;;;;;;5.80;0.30;;;9.40;99.90;;;;;;4976003;28;20076;-77
2023/11/05 02:57:36;;;;;;;5.78;0.15;;;9.30;99.90;;;;;;4975827;28;20113;-77
2023/11/05 03:00:04;;;;;;;3.30;0.40;;;9.30;99.90;;;;;;4958621;28;20029;-77
2023/11/05 03:02:32;;;;;;;4.00;0.15;;;9.30;99.90;;;;;;4958350;28;20026;-77
2023/11/05 03:04:57;;;;;;;6.90;0.10;;;9.40;99.90;;;;;;4976444;28;20118;-77
2023/11/05 03:07:23;;;;;;;4.13;0.20;;;9.30;99.90;;;;;;4974243;28;20047;-77
2023/11/05 03:09:49;;;;;;;9.15;0.45;;;9.40;99.90;;;;;;4974399;28;20027;-77
2023/11/05 03:12:14;;;;;;;10.98;0.43;;;9.30;99.90;;;;;;4975426;28;20027;-77
2023/11/05 03:14:40;;;;;;;7.07;0.13;;;9.30;99.90;;;;;;4976063;28;20031;-77
2023/11/05 03:17:06;;;;;;;9.05;0.22;;;9.30;99.90;;;;;;4975133;28;20053;-77
2023/11/05 03:19:31;;;;;;;2.50;0.28;;;9.60;99.90;;;;;;4975448;28;20027;-77
2023/11/05 03:21:57;;;;;;;1.27;0.22;;;9.30;99.90;;;;;;4975339;28;20509;-77
2023/11/05 03:24:22;;;;;;;4.38;0.20;;;9.40;99.90;;;;;;4975218;28;20430;-77
2023/11/05 03:26:48;;;;;;;3.90;0.00;;;9.50;99.90;;;;;;4957851;28;20045;-77
2023/11/05 03:29:15;;;;;;;2.47;0.03;;;9.30;99.90;;;;;;4957871;28;20022;-77
2023/11/05 03:31:40;;;;;;;5.60;0.10;;;9.30;99.90;;;;;;4975250;28;20586;-77
2023/11/05 03:34:06;;;;;;;2.83;0.28;;;9.40;99.90;;;;;;4975230;28;20019;-77
2023/11/05 03:36:31;;;;;;;4.60;0.73;;;9.40;99.90;;;;;;4957824;28;20030;-77
2023/11/05 03:38:57;;;;;;;2.78;0.00;;;9.40;99.90;;;;;;4975039;28;20034;-77
2023/11/05 03:41:23;;;;;;;1.30;0.05;;;9.40;99.90;;;;;;4974959;28;20027;-77
2023/11/05 03:43:48;;;;;;;5.32;0.00;;;9.30;99.90;;;;;;4975425;28;20030;-77
2023/11/05 03:46:14;;;;;;;2.55;0.00;;;9.40;99.90;;;;;;4975268;28;20019;-76
2023/11/05 03:48:41;;;;;;;2.65;0.00;;;9.30;99.90;;;;;;4957577;28;20482;-76
2023/11/05 03:51:17;;;;;;;9.60;0.43;;;;;;;;;;4975263;28;20015;-77
2023/11/05 03:53:42;;;;;;;5.00;0.50;;;9.30;99.90;;;;;;4974872;28;20055;-77
2023/11/05 03:56:09;;;;;;;2.75;0.10;;;9.40;99.90;;;;;;4974854;28;20054;-77
2023/11/05 03:58:37;;;;;;;4.88;0.10;;;9.30;99.90;;;;;;4974927;28;20031;-77
2023/11/05 04:01:04;;;;;;;4.18;0.75;;;9.30;99.90;;;;;;4974886;28;20089;-76
2023/11/05 04:03:31;;;;;;;4.35;0.00;;;9.40;99.90;;;;;;4974727;28;20081;-77
2023/11/05 04:05:56;;;;;;;3.72;0.20;;;9.40;99.90;;;;;;4957437;28;20027;-76
2023/11/05 04:08:22;;;;;;;4.38;0.13;;;;;;;;;;4957394;28;20023;-77
2023/11/05 04:10:48;;;;;;;3.45;0.10;;;9.50;99.90;;;;;;4974795;28;20427;-77
2023/11/05 04:13:14;;;;;;;1.27;0.15;;;9.40;99.90;;;;;;4974629;28;20043;-77
2023/11/05 04:15:39;;;;;;;4.13;0.10;;;9.50;99.90;;;;;;4957436;28;20025;-77
2023/11/05 04:18:05;;;;;;;3.30;0.98;;;9.50;99.90;;;;;;4973961;28;20034;-77
2023/11/05 04:20:30;;;;;;;4.65;0.00;;;9.50;99.90;;;;;;4974910;28;20030;-77
2023/11/05 04:22:56;;;;;;;1.98;0.20;;;9.50;99.90;;;;;;4973291;28;20079;-77
2023/11/05 04:25:22;;;;;;;10.57;0.13;;;9.50;99.90;;;;;;4957614;28;20078;-77
2023/11/05 04:27:47;;;;;;;5.63;0.20;;;9.50;99.90;;;;;;4974439;28;20049;-77
2023/11/05 04:30:13;;;;;;;3.47;0.25;;;9.50;99.90;;;;;;4957217;28;20027;-77
2023/11/05 04:32:39;;;;;;;6.80;0.13;;;9.50;99.90;;;;;;4974495;28;20442;-77
2023/11/05 04:35:04;;;;;;;11.77;0.45;;;9.50;99.90;;;;;;4957098;28;20077;-77
2023/11/05 04:37:30;;;;;;;1.42;0.22;;;9.50;99.90;;;;;;4974204;28;20027;-77
2023/11/05 04:39:56;;;;;;;9.90;0.43;;;9.50;99.90;;;;;;4974835;28;20070;-77
2023/11/05 04:42:21;;;;;;;3.30;0.20;;;9.50;99.90;;;;;;4973113;28;20019;-77
2023/11/05 04:44:47;;;;;;;3.83;0.22;;;9.40;99.90;;;;;;4973073;28;20070;-77
2023/11/05 04:47:12;;;;;;;6.43;0.40;;;9.50;99.90;;;;;;4973010;28;20027;-77
2023/11/05 04:49:38;;;;;;;4.95;0.65;;;9.50;99.90;;;;;;4973127;28;20033;-77
2023/11/05 04:52:04;;;;;;;2.40;0.47;;;9.50;99.90;;;;;;4974479;28;20114;-77
2023/11/05 04:54:29;;;;;;;7.85;0.15;;;9.40;99.90;;;;;;4974863;28;20386;-77
2023/11/05 04:56:55;;;;;;;8.13;0.20;;;9.50;99.90;;;;;;4974152;28;20058;-77
2023/11/05 04:59:20;;;;;;;6.55;0.40;;;9.50;99.90;;;;;;4956965;28;20026;-77
2023/11/05 05:01:46;;;;;;;4.35;0.05;;;9.50;99.90;;;;;;4972931;28;20038;-77
2023/11/05 05:04:12;;;;;;;3.58;0.08;;;9.50;99.90;;;;;;4974282;28;20019;-77
2023/11/05 05:06:37;;;;;;;5.13;0.05;;;9.50;99.90;;;;;;4977817;28;20023;-77
2023/11/05 05:09:03;;;;;;;3.40;0.22;;;9.50;99.90;;;;;;4977831;28;20027;-77
2023/11/05 05:11:29;;;;;;;3.72;0.45;;;9.40;99.90;;;;;;4978394;28;20479;-77
2023/11/05 05:13:54;;;;;;;3.53;0.55;;;9.50;99.90;;;;;;4977648;28;20027;-77
2023/11/05 05:16:20;;;;;;;3.50;0.10;;;9.40;99.90;;;;;;4977735;28;20030;-77
2023/11/05 05:18:46;;;;;;;8.88;0.70;;;9.40;99.90;;;;;;4977716;28;20019;-77
2023/11/05 05:21:11;;;;;;;7.30;0.68;;;9.40;99.90;;;;;;4977671;28;20046;-77
2023/11/05 05:23:37;;;;;;;5.45;0.85;;;9.50;99.90;;;;;;4977334;28;20393;-77
2023/11/05 05:26:03;;;;;;;2.70;0.50;;;9.50;99.90;;;;;;4977553;28;20491;-77
2023/11/05 05:28:29;;;;;;;5.03;0.55;;;9.50;99.90;;;;;;4977599;28;20517;-78
2023/11/05 05:30:55;;;;;;;4.22;0.22;;;9.50;99.90;;;;;;4960137;28;20446;-77
2023/11/05 05:33:20;;;;;;;5.50;0.20;;;9.50;99.90;;;;;;4977385;28;20030;-78
2023/11/05 05:35:46;;;;;;;1.23;0.52;;;9.50;99.90;;;;;;4959974;28;20031;-77
2023/11/05 05:38:12;;;;;;;4.35;0.40;;;9.50;99.90;;;;;;4960151;28;20022;-76
2023/11/05 05:40:37;;;;;;;3.70;0.20;;;9.50;99.90;;;;;;4959821;28;20023;-76
2023/11/05 05:43:03;;;;;;;3.63;0.43;;;9.50;99.90;;;;;;4977080;28;20031;-75
2023/11/05 05:45:29;;;;;;;0.73;0.08;;;9.50;99.90;;;;;;4977556;28;20050;-76
2023/11/05 05:47:54;;;;;;;5.05;0.50;;;9.50;99.90;;;;;;4977072;28;20027;-76
2023/11/05 05:50:20;;;;;;;3.28;0.10;;;9.50;99.90;;;;;;4959738;28;20019;-76
2023/11/05 05:52:46;;;;;;;2.53;0.05;;;9.50;99.90;;;;;;4977505;28;20506;-76
2023/11/05 05:55:15;;;;;;;2.65;0.22;;;9.50;99.90;;;;;;4959507;28;20402;-76
2023/11/05 05:57:41;;;;;;;5.18;0.08;;;9.50;99.90;;;;;;4977091;28;20031;-76
2023/11/05 06:00:09;;;;;;;1.20;0.20;;;9.50;99.90;;;;;;4976758;28;20034;-76
2023/11/05 06:02:38;;;;;;;3.75;0.30;;;9.50;99.90;;;;;;4976679;28;20393;-76
2023/11/05 06:05:06;;;;;;;5.63;0.30;;;9.50;99.90;;;;;;4959684;28;20030;-77
2023/11/05 06:07:31;;;;;;;3.28;0.28;;;9.50;99.90;;;;;;4976734;28;20506;-76
2023/11/05 06:10:01;;;;;;;2.97;0.80;;;9.50;99.90;;;;;;4976787;28;20042;-76
2023/11/05 06:12:27;;;;;;;6.07;0.20;;;9.50;99.90;;;;;;4976864;28;20062;-76
2023/11/05 06:14:53;;;;;;;4.47;0.10;;;9.50;99.90;;;;;;4976250;28;20108;-76
2023/11/05 06:17:19;;;;;;;1.73;0.10;;;9.50;99.90;;;;;;4976454;28;20073;-76
2023/11/05 06:19:44;;;;;;;3.20;0.25;;;9.50;99.90;;;;;;4976562;28;20062;-76
2023/11/05 06:22:11;;;;;;;3.63;0.65;;;9.60;99.90;;;;;;4976347;28;20031;-76
2023/11/05 06:24:38;;;;;;;2.97;0.45;;;9.50;99.90;;;;;;4977009;28;20026;-76
2023/11/05 06:27:04;;;;;;;4.47;0.70;;;9.50;99.90;;;;;;4958744;28;20077;-76
2023/11/05 06:29:30;;;;;;;2.60;0.20;;;9.50;99.90;;;;;;4958879;28;20014;-76
2023/11/05 06:31:55;;;;;;;5.95;0.47;;;9.60;99.90;;;;;;4976844;28;20027;-76
2023/11/05 06:34:21;;;;;;;3.92;0.22;;;9.50;99.90;;;;;;4976330;28;20030;-76
2023/11/05 06:36:57;;;;;;;7.82;0.38;;;9.50;99.90;;;;;;4976039;28;20027;-76
2023/11/05 06:39:23;;;;;;;7.20;0.10;;;9.60;99.90;;;;;;4976274;28;20030;-76
2023/11/05 06:41:48;;;;;;;5.88;0.52;;;9.50;99.90;;;;;;4975946;28;20026;-76
2023/11/05 06:44:14;;;;;;;2.85;0.08;;;9.50;99.90;;;;;;4975916;28;20023;-76
2023/11/05 06:46:39;;;;;;;2.22;0.13;;;9.50;99.90;;;;;;4974680;28;20018;-76
2023/11/05 06:49:05;;;;;;;4.55;0.30;;;9.50;99.90;;;;;;4975864;28;20031;-76
2023/11/05 06:51:31;;;;;;;5.05;0.10;;;9.50;99.90;;;;;;4975842;28;20077;-76
2023/11/05 06:53:57;;;;;;;6.45;0.20;;;9.40;99.90;;;;;;4958560;28;20023;-76
2023/11/05 06:56:25;;;;;;;2.40;0.15;;;9.40;99.90;;;;;;4975808;28;20394;-76
2023/11/05 06:58:51;;;;;;;3.78;0.50;;;9.40;99.90;;;;;;4975681;28;20048;-76
2023/11/05 07:01:20;;;;;;;3.88;1.45;;;9.40;99.90;;;;;;4975744;28;20448;-76
2023/11/05 07:03:46;;;;;;;8.55;0.35;;;9.40;99.90;;;;;;4975808;28;20389;-76
2023/11/05 07:06:15;;;;;;;3.28;0.10;;;9.40;99.90;;;;;;4975616;28;20102;-76
2023/11/05 07:08:42;;;;;;;5.88;0.35;;;;;;;;;;4975442;28;20086;-76
2023/11/05 07:11:08;;;;;;;2.30;0.30;;;9.50;99.90;;;;;;4958106;28;20034;-76
2023/11/05 07:13:34;;;;;;;5.47;0.40;;;9.60;99.90;;;;;;4975304;28;20042;-76
2023/11/05 07:15:59;;;;;;;3.22;0.30;;;9.50;99.90;;;;;;4958089;28;20154;-76
2023/11/05 07:18:25;;;;;;;3.97;0.60;;;9.60;99.90;;;;;;4975507;28;20031;-76
2023/11/05 07:20:50;;;;;;;6.32;0.60;;;9.60;99.90;;;;;;4975639;28;20098;-76
2023/11/05 07:23:16;;;;;;;5.03;0.32;;;9.60;99.90;;;;;;4975181;28;20041;-76
2023/11/05 07:25:42;;;;;;;4.85;0.25;;;9.70;99.90;;;;;;4957960;28;20114;-76
2023/11/05 07:28:08;;;;;;;2.78;0.10;;;9.70;99.90;;;;;;4957281;28;20030;-76
2023/11/05 07:30:34;;;;;;;3.83;0.28;;;9.70;99.90;;;;;;4957885;28;20037;-76
2023/11/05 07:32:59;;;;;;;6.50;0.95;;;9.90;99.90;;;;;;4975152;28;20110;-76
2023/11/05 07:35:26;;;;;;;4.78;0.28;;;10.10;99.90;;;;;;4975647;28;20035;-76
2023/11/05 07:37:52;;;;;;;1.58;0.20;;;9.80;99.90;;;;;;4975520;28;20077;-76
2023/11/05 07:40:18;;;;;;;6.63;0.63;;;;;;;;;;4957880;28;20050;-76
2023/11/05 07:42:44;;;;;;;6.45;0.20;;;9.90;99.90;;;;;;4957818;28;20031;-76
2023/11/05 07:45:10;;;;;;;2.67;0.20;;;9.90;99.90;;;;;;4975073;28;20023;-76
2023/11/05 07:47:39;;;;;;;8.38;0.85;;;10.00;99.90;;;;;;4974638;28;20089;-76
2023/11/05 07:50:09;;;;;;;;;;;10.00;99.90;;;;;;4975325;28;20015;-76
2023/11/05 07:52:34;;;;;;;5.43;0.20;;;10.00;99.90;;;;;;4974760;28;20389;-76
2023/11/05 07:55:02;;;;;;;1.63;0.10;;;10.00;99.90;;;;;;4974918;28;20023;-76
2023/11/05 07:57:28;;;;;;;3.33;0.95;;;10.10;99.90;;;;;;4974798;28;20026;-76
2023/11/05 07:59:54;;;;;;;7.50;0.30;;;10.90;99.90;;;;;;4974646;28;20038;-76
2023/11/05 08:02:19;;;;;;;5.78;0.88;;;10.10;99.90;;;;;;4974671;28;20023;-76
2023/11/05 08:04:45;;;;;;;3.80;0.45;;;10.10;99.90;;;;;;4957354;28;20482;-76
2023/11/05 08:07:11;;;;;;;5.22;0.43;;;10.20;99.90;;;;;;4974463;28;20037;-76
2023/11/05 08:09:36;;;;;;;5.68;0.50;;;10.20;99.90;;;;;;4974707;28;20105;-76
2023/11/05 08:12:02;;;;;;;2.95;0.45;;;10.20;99.90;;;;;;4974415;28;20019;-76
2023/11/05 08:14:28;;;;;;;5.75;0.25;;;10.20;99.90;;;;;;4974426;28;20030;-76
2023/11/05 08:16:53;;;;;;;7.78;0.95;;;10.20;99.90;;;;;;4974512;28;20027;-75
2023/11/05 08:19:19;;;;;;;7.88;1.10;;;10.30;99.90;;;;;;4974520;28;20041;-75
2023/11/05 08:21:45;;;;;;;2.85;0.20;;;10.30;99.90;;;;;;4975057;28;20027;-75
2023/11/05 08:24:11;;;;;;;4.60;0.68;;;10.30;99.90;;;;;;4957059;28;20034;-75
2023/11/05 08:26:37;;;;;;;7.78;0.50;;;10.40;99.90;;;;;;4974512;28;20030;-75
2023/11/05 08:29:02;;;;;;;7.95;0.40;;;10.40;99.90;;;;;;4974433;28;20023;-75
2023/11/05 08:31:29;;;;;;;7.47;0.70;;;10.50;99.90;;;;;;4974936;28;20053;-75
2023/11/05 08:33:55;;;;;;;11.10;0.50;;;10.60;99.90;;;;;;4974313;28;20034;-75
2023/11/05 08:36:20;;;;;;;9.90;0.60;;;10.60;99.90;;;;;;4956987;28;20474;-76
2023/11/05 08:38:46;;;;;;;11.15;1.52;;;10.60;99.90;;;;;;4976631;28;20042;-75
2023/11/05 08:41:12;;;;;;;6.40;1.17;;;10.60;99.90;;;;;;4978372;28;20031;-75
2023/11/05 08:43:37;;;;;;;8.10;0.60;;;10.60;99.90;;;;;;4960872;28;20019;-75
2023/11/05 08:46:03;;;;;;;8.48;1.75;;;10.70;99.90;;;;;;4978311;28;20035;-75
2023/11/05 08:48:29;;;;;;;5.70;0.65;;;10.70;99.90;;;;;;4978658;28;20030;-75
2023/11/05 08:50:56;;;;;;;8.68;0.73;;;10.70;99.90;;;;;;4978038;28;20042;-75
2023/11/05 08:53:23;;;;;;;8.50;1.15;;;10.70;99.90;;;;;;4978024;28;20027;-75
2023/11/05 08:55:49;;;;;;;7.10;0.98;;;10.80;99.90;;;;;;4977900;28;20051;-75
2023/11/05 08:58:16;;;;;;;2.47;0.55;;;10.80;99.90;;;;;;4960477;28;20073;-76
2023/11/05 09:00:43;;;;;;;11.02;0.88;;;10.90;99.90;;;;;;4960420;28;20450;-75
2023/11/05 09:03:11;;;;;;;8.60;0.90;;;10.90;99.90;;;;;;4960405;28;20451;-75
2023/11/05 09:05:37;;;;;;;4.17;0.30;;;11.00;99.90;;;;;;4978260;28;20102;-75
2023/11/05 09:08:03;;;;;;;9.73;1.45;;;11.10;99.90;;;;;;4977577;28;20493;-75
2023/11/05 09:10:30;;;;;;;3.90;1.13;;;11.10;99.90;;;;;;4977754;28;20086;-75
2023/11/05 09:12:56;;;;;;;6.78;0.88;;;11.20;99.90;;;;;;4960190;28;20486;-75
2023/11/05 09:15:22;;;;;;;4.43;0.80;;;11.30;99.90;;;;;;4976351;28;20073;-75
2023/11/05 09:17:49;;;;;;;3.33;0.73;;;11.40;99.90;;;;;;4977310;28;20133;-76
2023/11/05 09:20:15;;;;;;;7.03;0.63;;;11.40;99.90;;;;;;4977570;28;20106;-75
2023/11/05 09:22:41;;;;;;;4.85;0.30;;;12.20;99.90;;;;;;4960112;28;20130;-76
2023/11/05 09:25:08;;;;;;;5.60;0.45;;;11.50;99.90;;;;;;4959912;28;20019;-76
2023/11/05 09:27:34;;;;;;;0.50;0.00;;;11.60;99.90;;;;;;4977393;28;20061;-76
2023/11/05 09:30:00;;;;;;;2.97;0.20;;;11.60;99.90;;;;;;4977188;28;20029;-76
2023/11/05 09:32:26;;;;;;;2.33;0.22;;;11.60;99.90;;;;;;4977720;28;20378;-76
2023/11/05 09:34:52;;;;;;;4.18;0.20;;;11.60;99.90;;;;;;4977085;28;20023;-76
2023/11/05 09:37:18;;;;;;;4.55;0.70;;;11.60;99.90;;;;;;4959571;28;20125;-76
2023/11/05 09:39:45;;;;;;;2.80;0.30;;;11.50;99.90;;;;;;4977053;28;20030;-76
2023/11/05 09:42:16;;;;;;;7.28;1.23;;;11.50;99.90;;;;;;4976939;28;20023;-76
2023/11/05 09:44:42;;;;;;;5.20;0.22;;;11.40;99.90;;;;;;4977240;28;20026;-77
2023/11/05 09:47:09;;;;;;;10.68;0.63;;;11.40;99.90;;;;;;4975911;28;20019;-77
2023/11/05 09:49:37;;;;;;;8.20;0.25;;;11.20;99.90;;;;;;4959132;28;20031;-77
2023/11/05 09:52:03;;;;;;;3.90;0.55;;;12.20;99.90;;;;;;4977692;28;20134;-77
2023/11/05 09:54:29;;;;;;;5.50;0.65;;;11.20;99.90;;;;;;4959679;28;20023;-77
2023/11/05 09:56:55;;;;;;;5.68;0.63;;;11.20;99.90;;;;;;4975838;28;20513;-77
2023/11/05 09:59:22;;;;;;;7.95;0.40;;;11.10;99.90;;;;;;4977034;28;20103;-77
2023/11/05 10:01:54;;;;;;;5.10;0.85;;;11.10;99.90;;;;;;4976920;28;20467;-75
2023/11/05 10:04:20;;;;;;;2.70;0.40;;;11.10;99.90;;;;;;4976603;28;20065;-75
2023/11/05 10:06:47;;;;;;;13.63;1.60;;;11.20;99.90;;;;;;4977109;28;20054;-75
2023/11/05 10:09:13;;;;;;;1.95;0.50;;;11.20;99.90;;;;;;4959246;28;20023;-75
2023/11/05 10:11:43;;;;;;;7.00;0.55;;;11.20;99.90;;;;;;4976546;28;20394;-75
2023/11/05 10:14:14;;;;;;;4.25;0.60;;;11.20;99.90;;;;;;4976468;28;20058;-75
2023/11/05 10:16:39;;;;;;;10.70;0.73;;;11.20;99.90;;;;;;4976367;28;20062;-76
2023/11/05 10:19:05;;;;;;;6.63;0.77;;;11.10;99.90;;;;;;4976346;28;20035;-75
2023/11/05 10:21:35;;;;;;;6.55;0.52;;;11.10;99.90;;;;;;4958938;28;20479;-75
2023/11/05 10:24:01;;;;;;;1.40;0.30;;;11.10;99.90;;;;;;4958810;28;20085;-75
2023/11/05 10:26:31;;;;;;;2.90;0.32;;;11.00;99.90;;;;;;4958897;28;20033;-75
2023/11/05 10:28:58;;;;;;;3.33;0.60;;;11.10;99.90;;;;;;4958912;28;20015;-75
2023/11/05 10:31:25;;;;;;;1.90;0.40;;;11.00;99.90;;;;;;4976161;28;20022;-75
2023/11/05 10:33:54;;;;;;;3.58;0.50;;;10.90;99.90;;;;;;4976174;28;20130;-75
2023/11/05 10:36:21;;;;;;;4.47;0.43;;;10.80;99.90;;;;;;4976443;28;20058;-75
2023/11/05 10:38:49;;;;;;;4.38;1.30;;;10.80;99.90;;;;;;4976591;28;20023;-75
2023/11/05 10:41:19;;;;;;;3.65;0.50;;;10.80;99.90;;;;;;4976103;28;20022;-75
2023/11/05 10:43:49;;;;;;;2.42;0.80;;;10.80;99.90;;;;;;4975959;28;20402;-75
2023/11/05 10:46:20;;;;;;;3.70;0.40;;;10.80;99.90;;;;;;4976602;28;20073;-75
2023/11/05 10:48:50;;;;;;;6.55;0.30;;;10.80;99.90;;;;;;4958762;28;20015;-75
2023/11/05 10:51:21;;;;;;;4.47;0.40;;;10.80;99.90;;;;;;4959044;28;20019;-75
2023/11/05 10:53:48;;;;;;;3.75;0.80;;;10.80;99.90;;;;;;4975771;28;20059;-75
2023/11/05 10:56:36;;;;;;;2.25;0.28;;;10.90;99.90;;;;;;4958778;28;20031;-74
2023/11/05 10:59:02;;;;;;;2.67;0.30;;;10.80;99.90;;;;;;4975741;28;20402;-74
2023/11/05 11:01:32;;;;;;;1.10;0.30;;;10.80;99.90;;;;;;4974593;28;20027;-75
2023/11/05 11:04:18;;;;;;;2.47;0.40;;;10.80;99.90;;;;;;4976138;28;20117;-75
2023/11/05 11:06:44;;;;;;;4.15;0.15;;;10.80;99.90;;;;;;4958161;28;20633;-75
2023/11/05 11:09:22;;;;;;;6.82;0.40;;;10.80;99.90;;;;;;4958123;28;20451;-75
2023/11/05 11:11:49;;;;;;;3.28;0.32;;;10.80;99.90;;;;;;4976062;28;20026;-75
2023/11/05 11:14:15;;;;;;;2.47;0.00;;;10.80;99.90;;;;;;4958120;28;20086;-75
2023/11/05 11:16:43;;;;;;;6.22;0.47;;;10.90;99.90;;;;;;4974061;28;20031;-75
2023/11/05 11:19:13;;;;;;;3.15;0.05;;;10.90;99.90;;;;;;4957928;28;20023;-74
2023/11/05 11:22:03;;;;;;;1.15;0.17;;;11.00;99.90;;;;;;4957916;28;20037;-74
2023/11/05 11:24:33;;;;;;;8.15;0.85;;;11.20;99.90;;;;;;4957427;28;20043;-75
2023/11/05 11:27:05;;;;;;;2.80;0.15;;;11.70;99.90;;;;;;4957711;28;20038;-74
2023/11/05 11:29:45;;;;;;;2.72;0.15;;;11.70;99.90;;;;;;4957869;28;20422;-76
2023/11/05 11:32:11;;;;;;;2.58;0.30;;;12.00;99.90;;;;;;4957767;28;20029;-74
2023/11/05 11:34:37;;;;;;;2.28;0.00;;;12.20;99.90;;;;;;4973614;28;20496;-75
2023/11/05 11:37:04;;;;;;;0.88;0.00;;;12.20;99.90;;;;;;4974787;28;20090;-75
2023/11/05 11:39:31;;;;;;;5.72;0.35;;;12.20;99.90;;;;;;4974784;28;20427;-74
2023/11/05 11:41:57;;;;;;;5.85;0.43;;;12.30;99.90;;;;;;4957758;28;20039;-75
2023/11/05 11:44:23;;;;;;;6.28;0.52;;;12.30;99.90;;;;;;4957370;28;20130;-75
2023/11/05 11:46:49;;;;;;;3.35;0.20;;;12.30;99.90;;;;;;4957442;28;20023;-75
2023/11/05 11:49:15;;;;;;;2.65;0.10;;;12.30;99.90;;;;;;4974795;28;20045;-75
2023/11/05 11:51:40;;;;;;;4.07;0.13;;;12.10;99.90;;;;;;4973427;28;20025;-75
2023/11/05 11:54:08;;;;;;;5.78;0.57;;;12.10;99.90;;;;;;4974596;28;20545;-75
2023/11/05 11:56:34;;;;;;;2.05;0.28;;;11.90;99.90;;;;;;4974588;28;20027;-75
2023/11/05 11:59:10;;;;;;;2.55;0.10;;;11.80;99.90;;;;;;4974614;28;20546;-74
2023/11/05 12:01:37;;;;;;;3.58;0.30;;;11.80;99.90;;;;;;4974571;28;20110;-74
2023/11/05 12:04:04;;;;;;;5.72;0.22;;;12.00;99.90;;;;;;4974641;28;20019;-76
2023/11/05 12:06:30;;;;;;;3.05;0.05;;;11.80;99.90;;;;;;4975124;28;20375;-75
2023/11/05 12:08:55;;;;;;;5.22;0.20;;;11.80;99.90;;;;;;4974838;28;20022;-77
2023/11/05 12:11:27;;;;;;;5.63;0.75;;;11.80;99.90;;;;;;4975076;28;20055;-76
2023/11/05 12:13:54;;;;;;;4.93;0.20;;;11.80;99.90;;;;;;4958952;28;20031;-75
2023/11/05 12:16:20;;;;;;;2.30;0.28;;;;;;;;;;4974442;28;20030;-75
2023/11/05 12:18:48;;;;;;;1.23;0.10;;;12.00;99.90;;;;;;4974372;28;20030;-76
2023/11/05 12:21:14;;;;;;;6.50;1.17;;;11.90;99.90;;;;;;4957017;28;20125;-76
2023/11/05 12:23:41;;;;;;;1.35;0.30;;;11.90;99.90;;;;;;4956990;28;20023;-76
2023/11/05 12:26:11;;;;;;;4.38;0.35;;;11.90;99.90;;;;;;4974453;28;20442;-75
2023/11/05 12:28:37;;;;;;;2.15;0.10;;;11.80;99.90;;;;;;4957018;28;20487;-75
2023/11/05 12:31:05;;;;;;;1.15;0.75;;;11.70;99.90;;;;;;4974346;28;20027;-75
2023/11/05 12:33:40;;;;;;;4.13;0.90;;;11.60;99.90;;;;;;4974266;28;20418;-75
2023/11/05 12:36:07;;;;;;;2.17;0.10;;;11.50;99.90;;;;;;4956883;28;20077;-75
2023/11/05 12:38:33;;;;;;;4.55;0.65;;;11.30;99.90;;;;;;4974212;28;20027;-75
2023/11/05 12:40:59;;;;;;;1.85;0.63;;;11.20;99.90;;;;;;4974378;28;20027;-75
2023/11/05 12:43:24;;;;;;;4.28;0.73;;;11.30;99.90;;;;;;4956828;28;20517;-75
2023/11/05 12:45:58;;;;;;;1.85;0.10;;;11.20;99.90;;;;;;4974768;28;20030;-75
2023/11/05 12:48:28;;;;;;;3.65;0.00;;;11.30;99.90;;;;;;4956950;28;20023;-75
2023/11/05 12:50:54;;;;;;;2.20;0.25;;;11.30;99.90;;;;;;4956889;28;20113;-75
2023/11/05 12:53:21;;;;;;;2.15;0.13;;;11.30;99.90;;;;;;4974193;28;20106;-75